sensor_id;sensor_type;location;lat;lon;timestamp;pressure;altitude;pressure_sealevel;temperature;humidity
70011;BME280;59543;37.950;-122.338;2023-02-21T00:01:00;101611.97;;;19.08;40.73
70011;BME280;59543;37.950;-122.338;2023-02-21T00:03:44;101611.94;;;18.93;41.75
70011;BME280;59543;37.950;-122.338;2023-02-21T00:06:28;101609.09;;;18.56;41.30
70011;BME280;59543;37.950;-122.338;2023-02-21T00:09:12;101609.66;;;18.51;42.25
70011;BME280;59543;37.950;-122.338;2023-02-21T00:11:56;101609.47;;;18.52;42.55
70011;BME280;59543;37.950;-122.338;2023-02-21T00:14:40;101615.28;;;18.49;42.02
70011;BME280;59543;37.950;-122.338;2023-02-21T00:17:24;101618.22;;;18.40;42.36
70011;BME280;59543;37.950;-122.338;2023-02-21T00:20:08;101619.81;;;18.26;41.65
70011;BME280;59543;37.950;-122.338;2023-02-21T00:22:53;101627.13;;;18.34;42.36
70011;BME280;59543;37.950;-122.338;2023-02-21T00:25:37;101630.53;;;18.36;42.51
70011;BME280;59543;37.950;-122.338;2023-02-21T00:28:21;101627.59;;;18.37;42.74
70011;BME280;59543;37.950;-122.338;2023-02-21T00:31:05;101632.41;;;18.35;42.82
70011;BME280;59543;37.950;-122.338;2023-02-21T00:33:49;101634.78;;;18.38;43.96
70011;BME280;59543;37.950;-122.338;2023-02-21T00:36:33;101637.53;;;18.30;44.39
70011;BME280;59543;37.950;-122.338;2023-02-21T00:39:17;101630.47;;;18.13;44.52
70011;BME280;59543;37.950;-122.338;2023-02-21T00:42:01;101626.63;;;18.30;44.29
70011;BME280;59543;37.950;-122.338;2023-02-21T00:44:45;101627.47;;;17.99;45.26
70011;BME280;59543;37.950;-122.338;2023-02-21T00:47:29;101633.09;;;17.90;45.70
70011;BME280;59543;37.950;-122.338;2023-02-21T00:50:13;101629.16;;;17.92;45.27
70011;BME280;59543;37.950;-122.338;2023-02-21T00:52:57;101628.72;;;17.72;44.86
70011;BME280;59543;37.950;-122.338;2023-02-21T00:55:41;101636.41;;;17.44;43.88
70011;BME280;59543;37.950;-122.338;2023-02-21T00:58:25;101628.97;;;17.30;44.25
70011;BME280;59543;37.950;-122.338;2023-02-21T01:01:09;101627.59;;;17.34;44.85
70011;BME280;59543;37.950;-122.338;2023-02-21T01:03:53;101619.78;;;16.98;45.58
70011;BME280;59543;37.950;-122.338;2023-02-21T01:06:37;101618.44;;;16.94;47.86
70011;BME280;59543;37.950;-122.338;2023-02-21T01:09:21;101621.16;;;16.86;49.63
70011;BME280;59543;37.950;-122.338;2023-02-21T01:12:05;101624.31;;;16.65;51.25
70011;BME280;59543;37.950;-122.338;2023-02-21T01:14:49;101626.34;;;16.63;51.92
70011;BME280;59543;37.950;-122.338;2023-02-21T01:17:33;101617.97;;;16.32;52.26
70011;BME280;59543;37.950;-122.338;2023-02-21T01:20:17;101618.63;;;16.26;53.10
70011;BME280;59543;37.950;-122.338;2023-02-21T01:23:01;101618.28;;;16.29;53.64
70011;BME280;59543;37.950;-122.338;2023-02-21T01:25:44;101613.25;;;15.65;54.85
70011;BME280;59543;37.950;-122.338;2023-02-21T01:28:28;101608.19;;;15.44;55.63
70011;BME280;59543;37.950;-122.338;2023-02-21T01:31:18;101605.50;;;15.44;55.14
70011;BME280;59543;37.950;-122.338;2023-02-21T01:34:03;101617.53;;;15.24;55.15
70011;BME280;59543;37.950;-122.338;2023-02-21T01:36:47;101619.22;;;15.25;55.74
70011;BME280;59543;37.950;-122.338;2023-02-21T01:39:31;101631.31;;;14.86;56.84
70011;BME280;59543;37.950;-122.338;2023-02-21T01:42:15;101639.56;;;14.85;56.99
70011;BME280;59543;37.950;-122.338;2023-02-21T01:45:33;101642.13;;;14.69;56.71
70011;BME280;59543;37.950;-122.338;2023-02-21T01:48:14;101637.66;;;14.50;57.22
70011;BME280;59543;37.950;-122.338;2023-02-21T01:51:00;101646.06;;;14.56;57.37
70011;BME280;59543;37.950;-122.338;2023-02-21T01:53:46;101655.19;;;14.55;56.91
70011;BME280;59543;37.950;-122.338;2023-02-21T01:56:30;101651.44;;;14.38;57.19
70011;BME280;59543;37.950;-122.338;2023-02-21T01:59:15;101650.22;;;14.23;57.44
70011;BME280;59543;37.950;-122.338;2023-02-21T02:02:08;101644.59;;;14.34;57.02
70011;BME280;59543;37.950;-122.338;2023-02-21T02:04:56;101644.03;;;14.31;57.18
70011;BME280;59543;37.950;-122.338;2023-02-21T02:07:41;101646.00;;;14.11;57.62
70011;BME280;59543;37.950;-122.338;2023-02-21T02:10:25;101653.56;;;14.07;57.82
70011;BME280;59543;37.950;-122.338;2023-02-21T02:21:32;101615.00;;;13.68;60.23
70011;BME280;59543;37.950;-122.338;2023-02-21T02:39:39;101630.34;;;13.40;62.40
70011;BME280;59543;37.950;-122.338;2023-02-21T02:44:55;101624.66;;;13.14;65.22
70011;BME280;59543;37.950;-122.338;2023-02-21T02:47:24;101621.81;;;13.15;65.55
70011;BME280;59543;37.950;-122.338;2023-02-21T02:49:52;101617.56;;;13.03;66.30
70011;BME280;59543;37.950;-122.338;2023-02-21T02:52:19;101621.94;;;13.14;66.17
70011;BME280;59543;37.950;-122.338;2023-02-21T02:54:54;101625.25;;;12.98;66.82
70011;BME280;59543;37.950;-122.338;2023-02-21T02:57:24;101628.78;;;12.98;66.82
70011;BME280;59543;37.950;-122.338;2023-02-21T02:59:51;101628.78;;;12.89;66.96
70011;BME280;59543;37.950;-122.338;2023-02-21T03:02:20;101631.06;;;12.84;66.92
70011;BME280;59543;37.950;-122.338;2023-02-21T03:05:11;101631.06;;;12.74;66.99
70011;BME280;59543;37.950;-122.338;2023-02-21T03:10:52;101644.28;;;12.67;67.21
70011;BME280;59543;37.950;-122.338;2023-02-21T03:15:53;101636.75;;;12.61;66.86
70011;BME280;59543;37.950;-122.338;2023-02-21T03:18:25;101634.06;;;12.61;66.79
70011;BME280;59543;37.950;-122.338;2023-02-21T03:20:58;101629.22;;;12.55;66.97
70011;BME280;59543;37.950;-122.338;2023-02-21T03:23:26;101634.16;;;12.50;66.98
70011;BME280;59543;37.950;-122.338;2023-02-21T03:25:54;101626.47;;;12.45;67.38
70011;BME280;59543;37.950;-122.338;2023-02-21T03:28:21;101621.63;;;12.39;67.73
70011;BME280;59543;37.950;-122.338;2023-02-21T03:30:48;101614.81;;;12.25;68.25
70011;BME280;59543;37.950;-122.338;2023-02-21T03:33:15;101606.44;;;12.19;68.33
70011;BME280;59543;37.950;-122.338;2023-02-21T03:35:41;101594.63;;;12.20;68.22
70011;BME280;59543;37.950;-122.338;2023-02-21T03:38:07;101603.84;;;12.17;68.08
70011;BME280;59543;37.950;-122.338;2023-02-21T03:40:34;101614.53;;;12.19;68.20
70011;BME280;59543;37.950;-122.338;2023-02-21T03:43:01;101608.41;;;12.17;67.71
70011;BME280;59543;37.950;-122.338;2023-02-21T03:45:27;101597.31;;;12.10;67.58
70011;BME280;59543;37.950;-122.338;2023-02-21T03:47:53;101597.88;;;12.04;67.63
70011;BME280;59543;37.950;-122.338;2023-02-21T03:50:19;101598.38;;;11.88;68.17
70011;BME280;59543;37.950;-122.338;2023-02-21T03:52:45;101606.28;;;11.80;68.35
70011;BME280;59543;37.950;-122.338;2023-02-21T03:55:11;101608.78;;;11.72;66.14
70011;BME280;59543;37.950;-122.338;2023-02-21T03:57:37;101611.59;;;11.70;65.03
70011;BME280;59543;37.950;-122.338;2023-02-21T04:00:03;101610.16;;;11.66;64.49
70011;BME280;59543;37.950;-122.338;2023-02-21T04:02:28;101609.78;;;11.71;64.31
70011;BME280;59543;37.950;-122.338;2023-02-21T04:04:54;101620.22;;;11.64;63.37
70011;BME280;59543;37.950;-122.338;2023-02-21T04:07:20;101628.53;;;11.51;62.98
70011;BME280;59543;37.950;-122.338;2023-02-21T04:09:47;101620.19;;;11.54;62.82
70011;BME280;59543;37.950;-122.338;2023-02-21T04:12:13;101612.50;;;11.50;61.75
70011;BME280;59543;37.950;-122.338;2023-02-21T04:14:39;101603.81;;;11.46;61.26
70011;BME280;59543;37.950;-122.338;2023-02-21T04:17:05;101604.63;;;11.37;60.95
70011;BME280;59543;37.950;-122.338;2023-02-21T04:19:31;101608.03;;;11.39;60.36
70011;BME280;59543;37.950;-122.338;2023-02-21T04:21:57;101591.03;;;11.38;60.27
70011;BME280;59543;37.950;-122.338;2023-02-21T04:24:23;101576.72;;;11.38;60.47
70011;BME280;59543;37.950;-122.338;2023-02-21T04:26:48;101580.00;;;11.41;60.59
70011;BME280;59543;37.950;-122.338;2023-02-21T04:29:14;101583.69;;;11.40;60.88
70011;BME280;59543;37.950;-122.338;2023-02-21T04:31:40;101582.22;;;11.36;61.03
70011;BME280;59543;37.950;-122.338;2023-02-21T04:34:06;101590.56;;;11.33;61.00
70011;BME280;59543;37.950;-122.338;2023-02-21T04:36:32;101592.69;;;11.30;61.11
70011;BME280;59543;37.950;-122.338;2023-02-21T04:38:58;101587.84;;;11.24;61.14
70011;BME280;59543;37.950;-122.338;2023-02-21T04:41:24;101586.66;;;11.16;61.09
70011;BME280;59543;37.950;-122.338;2023-02-21T04:43:49;101579.91;;;11.01;61.76
70011;BME280;59543;37.950;-122.338;2023-02-21T04:46:17;101576.94;;;11.04;61.26
70011;BME280;59543;37.950;-122.338;2023-02-21T04:48:43;101580.34;;;11.06;61.32
70011;BME280;59543;37.950;-122.338;2023-02-21T04:51:10;101578.91;;;11.02;61.46
70011;BME280;59543;37.950;-122.338;2023-02-21T04:53:36;101583.72;;;10.98;62.94
70011;BME280;59543;37.950;-122.338;2023-02-21T04:56:02;101580.81;;;10.90;64.21
70011;BME280;59543;37.950;-122.338;2023-02-21T04:58:28;101574.25;;;10.83;65.58
70011;BME280;59543;37.950;-122.338;2023-02-21T05:00:54;101573.56;;;10.70;64.62
70011;BME280;59543;37.950;-122.338;2023-02-21T05:03:20;101576.41;;;10.68;64.39
70011;BME280;59543;37.950;-122.338;2023-02-21T05:05:46;101566.00;;;10.64;63.70
70011;BME280;59543;37.950;-122.338;2023-02-21T05:08:12;101572.06;;;10.56;63.12
70011;BME280;59543;37.950;-122.338;2023-02-21T05:10:38;101581.56;;;10.60;63.09
70011;BME280;59543;37.950;-122.338;2023-02-21T05:13:03;101578.28;;;10.57;63.56
70011;BME280;59543;37.950;-122.338;2023-02-21T05:15:29;101567.28;;;10.60;63.73
70011;BME280;59543;37.950;-122.338;2023-02-21T05:17:55;101571.06;;;10.57;64.27
70011;BME280;59543;37.950;-122.338;2023-02-21T05:20:21;101556.88;;;10.55;64.99
70011;BME280;59543;37.950;-122.338;2023-02-21T05:22:47;101557.91;;;10.43;66.38
70011;BME280;59543;37.950;-122.338;2023-02-21T05:25:17;101554.03;;;10.36;66.93
70011;BME280;59543;37.950;-122.338;2023-02-21T05:27:43;101547.28;;;10.41;68.75
70011;BME280;59543;37.950;-122.338;2023-02-21T05:30:09;101551.31;;;10.47;69.99
70011;BME280;59543;37.950;-122.338;2023-02-21T05:32:35;101544.94;;;10.48;71.17
70011;BME280;59543;37.950;-122.338;2023-02-21T05:35:01;101547.38;;;10.51;71.15
70011;BME280;59543;37.950;-122.338;2023-02-21T05:37:27;101538.44;;;10.50;71.74
70011;BME280;59543;37.950;-122.338;2023-02-21T05:39:53;101542.47;;;10.56;71.88
70011;BME280;59543;37.950;-122.338;2023-02-21T05:42:19;101534.31;;;10.67;72.66
70011;BME280;59543;37.950;-122.338;2023-02-21T05:44:45;101527.50;;;10.63;73.14
70011;BME280;59543;37.950;-122.338;2023-02-21T05:47:12;101531.19;;;10.62;73.91
70011;BME280;59543;37.950;-122.338;2023-02-21T05:49:38;101532.16;;;10.61;75.21
70011;BME280;59543;37.950;-122.338;2023-02-21T05:52:04;101535.56;;;10.63;75.83
70011;BME280;59543;37.950;-122.338;2023-02-21T05:54:30;101544.38;;;10.65;76.46
70011;BME280;59543;37.950;-122.338;2023-02-21T05:56:56;101548.03;;;10.64;77.17
70011;BME280;59543;37.950;-122.338;2023-02-21T05:59:22;101546.34;;;10.63;79.36
70011;BME280;59543;37.950;-122.338;2023-02-21T06:01:48;101543.22;;;10.68;79.44
70011;BME280;59543;37.950;-122.338;2023-02-21T06:04:14;101541.16;;;10.71;80.09
70011;BME280;59543;37.950;-122.338;2023-02-21T06:06:40;101549.03;;;10.63;81.05
70011;BME280;59543;37.950;-122.338;2023-02-21T06:09:06;101547.09;;;10.54;83.18
70011;BME280;59543;37.950;-122.338;2023-02-21T06:11:33;101546.63;;;10.49;83.69
70011;BME280;59543;37.950;-122.338;2023-02-21T06:13:59;101537.78;;;10.58;84.49
70011;BME280;59543;37.950;-122.338;2023-02-21T06:16:31;101547.38;;;10.51;84.62
70011;BME280;59543;37.950;-122.338;2023-02-21T06:18:56;101532.25;;;10.39;85.89
70011;BME280;59543;37.950;-122.338;2023-02-21T06:21:22;101530.00;;;10.44;86.29
70011;BME280;59543;37.950;-122.338;2023-02-21T06:23:48;101523.19;;;10.40;86.81
70011;BME280;59543;37.950;-122.338;2023-02-21T06:26:14;101537.31;;;10.32;87.89
70011;BME280;59543;37.950;-122.338;2023-02-21T06:28:41;101536.78;;;10.38;87.71
70011;BME280;59543;37.950;-122.338;2023-02-21T06:31:07;101530.28;;;10.41;87.38
70011;BME280;59543;37.950;-122.338;2023-02-21T06:33:33;101534.44;;;10.45;87.13
70011;BME280;59543;37.950;-122.338;2023-02-21T06:36:02;101541.91;;;10.41;87.39
70011;BME280;59543;37.950;-122.338;2023-02-21T06:38:28;101539.28;;;10.51;87.96
70011;BME280;59543;37.950;-122.338;2023-02-21T06:40:54;101541.13;;;10.50;88.05
70011;BME280;59543;37.950;-122.338;2023-02-21T06:43:19;101545.66;;;10.50;88.74
70011;BME280;59543;37.950;-122.338;2023-02-21T06:45:45;101548.16;;;10.42;89.93
70011;BME280;59543;37.950;-122.338;2023-02-21T06:48:15;101546.06;;;10.34;90.41
70011;BME280;59543;37.950;-122.338;2023-02-21T06:50:41;101553.19;;;10.35;90.61
70011;BME280;59543;37.950;-122.338;2023-02-21T06:53:07;101544.38;;;10.33;90.92
70011;BME280;59543;37.950;-122.338;2023-02-21T06:55:32;101547.81;;;10.35;90.61
70011;BME280;59543;37.950;-122.338;2023-02-21T06:57:58;101532.03;;;10.30;90.51
70011;BME280;59543;37.950;-122.338;2023-02-21T07:00:24;101525.59;;;10.11;91.68
70011;BME280;59543;37.950;-122.338;2023-02-21T07:02:51;101515.47;;;10.14;91.79
70011;BME280;59543;37.950;-122.338;2023-02-21T07:05:17;101512.66;;;10.04;92.39
70011;BME280;59543;37.950;-122.338;2023-02-21T07:07:44;101502.53;;;10.08;92.73
70011;BME280;59543;37.950;-122.338;2023-02-21T07:10:10;101504.97;;;10.00;93.05
70011;BME280;59543;37.950;-122.338;2023-02-21T07:12:36;101487.41;;;9.96;93.96
70011;BME280;59543;37.950;-122.338;2023-02-21T07:15:02;101485.91;;;10.03;92.82
70011;BME280;59543;37.950;-122.338;2023-02-21T07:17:28;101464.88;;;10.08;92.77
70011;BME280;59543;37.950;-122.338;2023-02-21T07:19:54;101459.25;;;10.11;92.41
70011;BME280;59543;37.950;-122.338;2023-02-21T07:22:20;101450.56;;;10.07;92.15
70011;BME280;59543;37.950;-122.338;2023-02-21T07:24:53;101447.50;;;10.12;91.64
70011;BME280;59543;37.950;-122.338;2023-02-21T07:27:19;101444.09;;;10.10;91.39
70011;BME280;59543;37.950;-122.338;2023-02-21T07:29:46;101433.84;;;10.04;90.98
70011;BME280;59543;37.950;-122.338;2023-02-21T07:32:13;101432.63;;;10.08;90.54
70011;BME280;59543;37.950;-122.338;2023-02-21T07:34:39;101424.34;;;10.00;91.20
70011;BME280;59543;37.950;-122.338;2023-02-21T07:37:05;101428.88;;;9.99;90.36
70011;BME280;59543;37.950;-122.338;2023-02-21T07:39:31;101433.41;;;9.99;91.16
70011;BME280;59543;37.950;-122.338;2023-02-21T07:41:56;101429.00;;;9.98;90.47
70011;BME280;59543;37.950;-122.338;2023-02-21T07:44:22;101428.28;;;9.96;90.41
70011;BME280;59543;37.950;-122.338;2023-02-21T07:46:48;101411.53;;;9.92;90.46
70011;BME280;59543;37.950;-122.338;2023-02-21T07:49:14;101396.03;;;9.96;90.19
70011;BME280;59543;37.950;-122.338;2023-02-21T07:51:40;101398.00;;;9.94;90.19
70011;BME280;59543;37.950;-122.338;2023-02-21T07:54:06;101389.59;;;9.87;90.46
70011;BME280;59543;37.950;-122.338;2023-02-21T07:56:32;101381.28;;;9.58;92.15
70011;BME280;59543;37.950;-122.338;2023-02-21T07:58:57;101381.69;;;9.74;91.41
70011;BME280;59543;37.950;-122.338;2023-02-21T08:01:24;101386.22;;;9.74;91.07
70011;BME280;59543;37.950;-122.338;2023-02-21T08:03:50;101389.75;;;9.74;89.86
70011;BME280;59543;37.950;-122.338;2023-02-21T08:06:16;101390.25;;;9.68;88.90
70011;BME280;59543;37.950;-122.338;2023-02-21T08:08:43;101380.88;;;9.62;88.98
70011;BME280;59543;37.950;-122.338;2023-02-21T08:11:09;101373.22;;;9.58;89.06
70011;BME280;59543;37.950;-122.338;2023-02-21T08:13:35;101378.19;;;9.62;88.70
70011;BME280;59543;37.950;-122.338;2023-02-21T08:16:01;101381.00;;;9.61;88.36
70011;BME280;59543;37.950;-122.338;2023-02-21T08:18:27;101387.00;;;9.53;88.27
70011;BME280;59543;37.950;-122.338;2023-02-21T08:20:53;101384.56;;;9.50;88.28
70011;BME280;59543;37.950;-122.338;2023-02-21T08:23:20;101376.78;;;9.47;87.78
70011;BME280;59543;37.950;-122.338;2023-02-21T08:25:47;101380.22;;;9.38;88.81
70011;BME280;59543;37.950;-122.338;2023-02-21T08:28:13;101383.53;;;9.30;88.56
70011;BME280;59543;37.950;-122.338;2023-02-21T08:30:39;101400.59;;;9.29;88.39
70011;BME280;59543;37.950;-122.338;2023-02-21T08:33:05;101382.06;;;9.26;88.30
70011;BME280;59543;37.950;-122.338;2023-02-21T08:35:31;101375.38;;;9.21;88.99
70011;BME280;59543;37.950;-122.338;2023-02-21T08:37:57;101388.16;;;9.28;88.74
70011;BME280;59543;37.950;-122.338;2023-02-21T08:40:28;101388.56;;;9.24;88.29
70011;BME280;59543;37.950;-122.338;2023-02-21T08:42:55;101391.94;;;9.26;88.64
70011;BME280;59543;37.950;-122.338;2023-02-21T08:45:21;101389.41;;;9.24;88.29
70011;BME280;59543;37.950;-122.338;2023-02-21T08:47:48;101378.94;;;9.21;88.01
70011;BME280;59543;37.950;-122.338;2023-02-21T08:50:14;101389.91;;;9.18;88.95
70011;BME280;59543;37.950;-122.338;2023-02-21T08:52:40;101381.72;;;9.08;89.46
70011;BME280;59543;37.950;-122.338;2023-02-21T08:55:06;101377.34;;;9.07;90.12
70011;BME280;59543;37.950;-122.338;2023-02-21T08:57:32;101383.09;;;9.03;90.35
70011;BME280;59543;37.950;-122.338;2023-02-21T08:59:59;101386.25;;;9.08;90.39
70011;BME280;59543;37.950;-122.338;2023-02-21T09:02:25;101390.66;;;9.09;90.91
70011;BME280;59543;37.950;-122.338;2023-02-21T09:04:51;101401.38;;;9.09;91.55
70011;BME280;59543;37.950;-122.338;2023-02-21T09:07:17;101394.44;;;9.18;92.06
70011;BME280;59543;37.950;-122.338;2023-02-21T09:09:44;101389.66;;;9.21;90.28
70011;BME280;59543;37.950;-122.338;2023-02-21T09:12:10;101383.19;;;9.12;90.86
70011;BME280;59543;37.950;-122.338;2023-02-21T09:14:37;101381.47;;;9.11;92.63
70011;BME280;59543;37.950;-122.338;2023-02-21T09:17:04;101384.78;;;9.15;93.25
70011;BME280;59543;37.950;-122.338;2023-02-21T09:19:30;101382.22;;;9.25;92.70
70011;BME280;59543;37.950;-122.338;2023-02-21T09:21:56;101364.66;;;9.21;93.52
70011;BME280;59543;37.950;-122.338;2023-02-21T09:24:23;101353.88;;;9.32;94.30
70011;BME280;59543;37.950;-122.338;2023-02-21T09:26:53;101366.94;;;9.36;94.14
70011;BME280;59543;37.950;-122.338;2023-02-21T09:29:20;101356.03;;;9.38;93.66
70011;BME280;59543;37.950;-122.338;2023-02-21T09:31:47;101347.06;;;9.28;94.73
70011;BME280;59543;37.950;-122.338;2023-02-21T09:34:13;101344.47;;;9.37;94.90
70011;BME280;59543;37.950;-122.338;2023-02-21T09:36:39;101345.44;;;9.36;95.60
70011;BME280;59543;37.950;-122.338;2023-02-21T09:39:05;101346.41;;;9.35;95.76
70011;BME280;59543;37.950;-122.338;2023-02-21T09:41:31;101337.00;;;9.41;95.82
70011;BME280;59543;37.950;-122.338;2023-02-21T09:43:58;101334.72;;;9.36;96.11
70011;BME280;59543;37.950;-122.338;2023-02-21T09:48:53;101313.75;;;9.19;96.93
70011;BME280;59543;37.950;-122.338;2023-02-21T09:51:19;101311.75;;;9.32;96.24
70011;BME280;59543;37.950;-122.338;2023-02-21T09:53:46;101317.00;;;9.34;95.49
70011;BME280;59543;37.950;-122.338;2023-02-21T09:56:28;101317.63;;;9.26;95.03
70011;BME280;59543;37.950;-122.338;2023-02-21T09:58:58;101303.63;;;9.23;95.14
70011;BME280;59543;37.950;-122.338;2023-02-21T10:01:28;101291.66;;;9.27;94.65
70011;BME280;59543;37.950;-122.338;2023-02-21T10:04:03;101291.53;;;9.28;94.50
70011;BME280;59543;37.950;-122.338;2023-02-21T10:11:54;101286.66;;;9.22;93.78
70011;BME280;59543;37.950;-122.338;2023-02-21T10:19:31;101281.47;;;9.09;93.12
70011;BME280;59543;37.950;-122.338;2023-02-21T10:21:59;101281.13;;;8.91;94.38
70011;BME280;59543;37.950;-122.338;2023-02-21T10:24:28;101284.41;;;8.95;94.35
70011;BME280;59543;37.950;-122.338;2023-02-21T10:26:58;101288.94;;;8.95;93.96
70011;BME280;59543;37.950;-122.338;2023-02-21T10:29:29;101273.44;;;8.98;94.22
70011;BME280;59543;37.950;-122.338;2023-02-21T10:32:00;101271.84;;;8.96;94.26
70011;BME280;59543;37.950;-122.338;2023-02-21T10:34:28;101273.56;;;8.97;94.23
70011;BME280;59543;37.950;-122.338;2023-02-21T10:36:55;101263.94;;;8.94;93.56
70011;BME280;59543;37.950;-122.338;2023-02-21T10:39:57;101255.16;;;8.92;94.20
70011;BME280;59543;37.950;-122.338;2023-02-21T10:45:09;101236.59;;;9.00;93.71
70011;BME280;59543;37.950;-122.338;2023-02-21T10:47:57;101232.94;;;9.01;94.18
70011;BME280;59543;37.950;-122.338;2023-02-21T10:53:06;101226.13;;;8.97;93.81
70011;BME280;59543;37.950;-122.338;2023-02-21T10:55:33;101223.56;;;8.96;94.50
70011;BME280;59543;37.950;-122.338;2023-02-21T10:58:08;101212.72;;;8.97;95.74
70011;BME280;59543;37.950;-122.338;2023-02-21T11:00:35;101207.69;;;9.04;95.29
70011;BME280;59543;37.950;-122.338;2023-02-21T11:03:21;101196.19;;;9.13;94.94
70011;BME280;59543;37.950;-122.338;2023-02-21T11:05:56;101186.94;;;9.06;96.06
70011;BME280;59543;37.950;-122.338;2023-02-21T11:08:38;101188.91;;;9.04;96.71
70011;BME280;59543;37.950;-122.338;2023-02-21T11:11:04;101179.84;;;9.05;96.61
70011;BME280;59543;37.950;-122.338;2023-02-21T11:13:30;101183.13;;;9.08;96.58
70011;BME280;59543;37.950;-122.338;2023-02-21T11:16:18;101178.16;;;9.04;96.35
70011;BME280;59543;37.950;-122.338;2023-02-21T11:18:43;101176.81;;;9.09;95.84
70011;BME280;59543;37.950;-122.338;2023-02-21T11:21:13;101171.94;;;9.03;97.29
70011;BME280;59543;37.950;-122.338;2023-02-21T11:26:11;101165.81;;;9.12;96.45
70011;BME280;59543;37.950;-122.338;2023-02-21T11:28:38;101170.59;;;9.09;95.91
70011;BME280;59543;37.950;-122.338;2023-02-21T11:33:30;101159.34;;;9.15;95.45
70011;BME280;59543;37.950;-122.338;2023-02-21T11:36:14;101155.69;;;9.05;95.41
70011;BME280;59543;37.950;-122.338;2023-02-21T11:38:45;101147.22;;;9.00;95.72
70011;BME280;59543;37.950;-122.338;2023-02-21T11:41:57;101153.09;;;8.93;95.67
70011;BME280;59543;37.950;-122.338;2023-02-21T11:44:29;101154.06;;;8.92;95.79
70011;BME280;59543;37.950;-122.338;2023-02-21T11:49:42;101159.16;;;8.96;94.74
70011;BME280;59543;37.950;-122.338;2023-02-21T11:52:13;101159.16;;;8.96;93.81
70011;BME280;59543;37.950;-122.338;2023-02-21T11:54:40;101159.94;;;8.86;93.12
70011;BME280;59543;37.950;-122.338;2023-02-21T12:02:33;101134.53;;;8.69;91.65
70011;BME280;59543;37.950;-122.338;2023-02-21T12:07:47;101141.53;;;8.50;90.54
70011;BME280;59543;37.950;-122.338;2023-02-21T12:13:17;101139.34;;;8.43;89.72
70011;BME280;59543;37.950;-122.338;2023-02-21T12:16:02;101141.53;;;8.38;89.62
70011;BME280;59543;37.950;-122.338;2023-02-21T12:26:56;101130.44;;;8.32;89.24
70011;BME280;59543;37.950;-122.338;2023-02-21T12:31:59;101125.56;;;8.37;89.75
70011;BME280;59543;37.950;-122.338;2023-02-21T12:52:14;101107.00;;;8.56;91.72
70011;BME280;59543;37.950;-122.338;2023-02-21T12:57:35;101130.81;;;8.50;92.26
70011;BME280;59543;37.950;-122.338;2023-02-21T13:00:11;101121.84;;;8.60;92.01
70011;BME280;59543;37.950;-122.338;2023-02-21T13:05:12;101109.44;;;8.59;92.00
70011;BME280;59543;37.950;-122.338;2023-02-21T13:07:44;101102.97;;;8.62;91.70
70011;BME280;59543;37.950;-122.338;2023-02-21T13:15:24;101097.00;;;8.58;92.76
70011;BME280;59543;37.950;-122.338;2023-02-21T13:18:04;101092.84;;;8.65;92.24
70011;BME280;59543;37.950;-122.338;2023-02-21T13:20:36;101102.50;;;8.57;92.66
70011;BME280;59543;37.950;-122.338;2023-02-21T13:26:17;101079.81;;;8.61;92.41
70011;BME280;59543;37.950;-122.338;2023-02-21T13:28:50;101074.09;;;8.54;92.45
70011;BME280;59543;37.950;-122.338;2023-02-21T13:31:20;101058.13;;;8.64;92.10
70011;BME280;59543;37.950;-122.338;2023-02-21T13:33:51;101058.22;;;8.62;92.44
70011;BME280;59543;37.950;-122.338;2023-02-21T13:38:46;101064.69;;;8.60;92.32
70011;BME280;59543;37.950;-122.338;2023-02-21T13:41:23;101077.50;;;8.56;92.79
70011;BME280;59543;37.950;-122.338;2023-02-21T13:43:51;101053.25;;;8.58;92.50
70011;BME280;59543;37.950;-122.338;2023-02-21T13:51:46;101044.81;;;8.62;92.06
70011;BME280;59543;37.950;-122.338;2023-02-21T13:54:12;101070.56;;;8.54;92.26
70011;BME280;59543;37.950;-122.338;2023-02-21T13:56:45;101074.97;;;8.55;92.99
70011;BME280;59543;37.950;-122.338;2023-02-21T14:01:50;101074.25;;;8.53;92.42
70011;BME280;59543;37.950;-122.338;2023-02-21T14:07:01;101050.78;;;8.66;92.43
70011;BME280;59543;37.950;-122.338;2023-02-21T14:09:27;101050.50;;;8.69;91.96
70011;BME280;59543;37.950;-122.338;2023-02-21T14:11:53;101052.88;;;8.62;92.08
70011;BME280;59543;37.950;-122.338;2023-02-21T14:14:22;101046.06;;;8.58;92.91
70011;BME280;59543;37.950;-122.338;2023-02-21T14:16:51;101056.38;;;8.63;92.54
70011;BME280;59543;37.950;-122.338;2023-02-21T14:19:51;101058.13;;;8.64;92.73
70011;BME280;59543;37.950;-122.338;2023-02-21T14:22:30;101051.03;;;8.63;93.04
70011;BME280;59543;37.950;-122.338;2023-02-21T14:27:31;101035.28;;;8.49;92.84
70011;BME280;59543;37.950;-122.338;2023-02-21T14:34:56;101029.50;;;8.53;93.30
70011;BME280;59543;37.950;-122.338;2023-02-21T14:37:25;101021.59;;;8.52;92.88
70011;BME280;59543;37.950;-122.338;2023-02-21T14:39:52;101026.44;;;8.58;92.65
70011;BME280;59543;37.950;-122.338;2023-02-21T14:50:01;101036.03;;;8.60;92.48
70011;BME280;59543;37.950;-122.338;2023-02-21T14:52:36;101029.72;;;8.61;92.81
70011;BME280;59543;37.950;-122.338;2023-02-21T15:05:17;101009.06;;;8.73;92.82
70011;BME280;59543;37.950;-122.338;2023-02-21T15:07:50;101002.97;;;8.71;92.83
70011;BME280;59543;37.950;-122.338;2023-02-21T15:10:21;101009.66;;;8.77;92.60
70011;BME280;59543;37.950;-122.338;2023-02-21T15:12:57;101005.66;;;8.71;93.16
70011;BME280;59543;37.950;-122.338;2023-02-21T15:15:33;101002.84;;;8.73;92.68